sensor_id;sensor_type;location;lat;lon;timestamp;pressure;altitude;pressure_sealevel;temperature;humidity
61697;BME280;47610;52.252;20.922;2023-05-24T00:02:03;99855.88;;;18.78;76.50
61697;BME280;47610;52.252;20.922;2023-05-24T00:07:07;99851.20;;;18.76;75.89
61697;BME280;47610;52.252;20.922;2023-05-24T00:12:11;99851.73;;;18.77;75.30
61697;BME280;47610;52.252;20.922;2023-05-24T00:17:13;99845.34;;;18.79;74.72
61697;BME280;47610;52.252;20.922;2023-05-24T00:22:19;99840.75;;;18.78;74.79
61697;BME280;47610;52.252;20.922;2023-05-24T00:27:22;99835.19;;;18.75;74.37
61697;BME280;47610;52.252;20.922;2023-05-24T00:32:26;99839.15;;;18.72;74.75
61697;BME280;47610;52.252;20.922;2023-05-24T00:37:29;99838.38;;;18.68;74.46
61697;BME280;47610;52.252;20.922;2023-05-24T00:42:32;99830.79;;;18.65;74.19
61697;BME280;47610;52.252;20.922;2023-05-24T00:47:36;99833.54;;;18.62;74.36
61697;BME280;47610;52.252;20.922;2023-05-24T00:52:42;99832.64;;;18.60;74.78
61697;BME280;47610;52.252;20.922;2023-05-24T00:57:47;99833.21;;;18.58;74.69
61697;BME280;47610;52.252;20.922;2023-05-24T01:02:52;99829.17;;;18.56;74.80
61697;BME280;47610;52.252;20.922;2023-05-24T01:08:07;99827.56;;;18.56;73.71
61697;BME280;47610;52.252;20.922;2023-05-24T01:13:22;99826.96;;;18.54;73.53
61697;BME280;47610;52.252;20.922;2023-05-24T01:18:32;99827.33;;;18.56;73.29
61697;BME280;47610;52.252;20.922;2023-05-24T01:23:43;99831.67;;;18.57;72.39
61697;BME280;47610;52.252;20.922;2023-05-24T01:28:50;99833.98;;;18.57;71.56
61697;BME280;47610;52.252;20.922;2023-05-24T01:33:54;99832.81;;;18.55;70.28
61697;BME280;47610;52.252;20.922;2023-05-24T01:38:58;99836.05;;;18.55;70.16
61697;BME280;47610;52.252;20.922;2023-05-24T01:44:06;99839.84;;;18.54;70.06
61697;BME280;47610;52.252;20.922;2023-05-24T01:49:20;99839.94;;;18.52;69.89
61697;BME280;47610;52.252;20.922;2023-05-24T01:54:30;99839.09;;;18.51;69.31
61697;BME280;47610;52.252;20.922;2023-05-24T01:59:36;99843.27;;;18.48;68.74
61697;BME280;47610;52.252;20.922;2023-05-24T02:04:43;99845.92;;;18.45;68.59
61697;BME280;47610;52.252;20.922;2023-05-24T02:09:46;99846.92;;;18.45;68.52
61697;BME280;47610;52.252;20.922;2023-05-24T02:14:50;99846.84;;;18.45;68.58
61697;BME280;47610;52.252;20.922;2023-05-24T02:19:53;99846.39;;;18.41;69.23
61697;BME280;47610;52.252;20.922;2023-05-24T02:24:56;99844.63;;;18.36;69.98
61697;BME280;47610;52.252;20.922;2023-05-24T02:30:01;99848.47;;;18.31;70.12
61697;BME280;47610;52.252;20.922;2023-05-24T02:35:06;99847.04;;;18.27;70.61
61697;BME280;47610;52.252;20.922;2023-05-24T02:40:12;99851.14;;;18.21;70.93
61697;BME280;47610;52.252;20.922;2023-05-24T02:45:16;99846.14;;;18.16;71.92
61697;BME280;47610;52.252;20.922;2023-05-24T02:50:20;99842.45;;;18.09;72.80
61697;BME280;47610;52.252;20.922;2023-05-24T02:55:23;99843.29;;;17.97;73.43
61697;BME280;47610;52.252;20.922;2023-05-24T03:00:27;99842.00;;;17.89;74.33
61697;BME280;47610;52.252;20.922;2023-05-24T03:05:31;99846.48;;;17.86;75.09
61697;BME280;47610;52.252;20.922;2023-05-24T03:10:35;99850.38;;;17.81;75.54
61697;BME280;47610;52.252;20.922;2023-05-24T03:15:39;99853.44;;;17.80;76.36
61697;BME280;47610;52.252;20.922;2023-05-24T03:20:45;99854.00;;;17.79;77.18
61697;BME280;47610;52.252;20.922;2023-05-24T03:25:48;99856.20;;;17.78;78.46
61697;BME280;47610;52.252;20.922;2023-05-24T03:30:53;99863.80;;;17.76;80.44
61697;BME280;47610;52.252;20.922;2023-05-24T03:35:55;99862.83;;;17.73;82.53
61697;BME280;47610;52.252;20.922;2023-05-24T03:40:58;99860.00;;;17.72;83.84
61697;BME280;47610;52.252;20.922;2023-05-24T03:46:04;99861.72;;;17.73;84.74
61697;BME280;47610;52.252;20.922;2023-05-24T03:51:08;99865.48;;;17.77;85.47
61697;BME280;47610;52.252;20.922;2023-05-24T03:56:12;99872.73;;;17.83;85.38
61697;BME280;47610;52.252;20.922;2023-05-24T04:01:15;99878.45;;;17.93;85.28
61697;BME280;47610;52.252;20.922;2023-05-24T04:06:19;99881.95;;;18.01;84.34
61697;BME280;47610;52.252;20.922;2023-05-24T04:11:23;99880.63;;;18.04;83.39
61697;BME280;47610;52.252;20.922;2023-05-24T04:16:29;99884.73;;;18.07;83.23
61697;BME280;47610;52.252;20.922;2023-05-24T04:21:36;99894.54;;;18.10;82.39
61697;BME280;47610;52.252;20.922;2023-05-24T04:26:39;99900.11;;;18.16;81.71
61697;BME280;47610;52.252;20.922;2023-05-24T04:31:44;99904.09;;;18.24;81.47
61697;BME280;47610;52.252;20.922;2023-05-24T04:36:47;99910.07;;;18.35;81.14
61697;BME280;47610;52.252;20.922;2023-05-24T04:41:52;99913.03;;;18.50;80.13
61697;BME280;47610;52.252;20.922;2023-05-24T04:46:57;99913.48;;;18.76;78.85
61697;BME280;47610;52.252;20.922;2023-05-24T04:52:03;99911.63;;;19.06;76.08
61697;BME280;47610;52.252;20.922;2023-05-24T04:57:07;99918.48;;;19.53;74.16
61697;BME280;47610;52.252;20.922;2023-05-24T05:02:10;99925.30;;;22.23;68.45
61697;BME280;47610;52.252;20.922;2023-05-24T05:07:14;99930.40;;;23.95;56.91
61697;BME280;47610;52.252;20.922;2023-05-24T05:12:20;99941.70;;;26.23;48.00
61697;BME280;47610;52.252;20.922;2023-05-24T05:17:23;99940.85;;;26.68;42.80
61697;BME280;47610;52.252;20.922;2023-05-24T05:22:27;99947.94;;;25.88;41.58
61697;BME280;47610;52.252;20.922;2023-05-24T05:27:30;99951.92;;;25.05;42.36
61697;BME280;47610;52.252;20.922;2023-05-24T05:32:35;99955.63;;;24.35;44.04
61697;BME280;47610;52.252;20.922;2023-05-24T05:37:38;99957.17;;;23.76;45.83
61697;BME280;47610;52.252;20.922;2023-05-24T05:42:42;99960.95;;;23.59;46.41
61697;BME280;47610;52.252;20.922;2023-05-24T05:47:49;99961.60;;;24.15;46.13
61697;BME280;47610;52.252;20.922;2023-05-24T05:52:52;99965.19;;;23.76;46.48
61697;BME280;47610;52.252;20.922;2023-05-24T05:57:55;99963.64;;;23.35;47.27
61697;BME280;47610;52.252;20.922;2023-05-24T06:03:00;99970.42;;;23.16;48.78
61697;BME280;47610;52.252;20.922;2023-05-24T06:08:04;99979.49;;;23.21;50.78
61697;BME280;47610;52.252;20.922;2023-05-24T06:13:08;99982.14;;;23.25;52.18
61697;BME280;47610;52.252;20.922;2023-05-24T06:18:11;99982.01;;;23.22;50.30
61697;BME280;47610;52.252;20.922;2023-05-24T06:23:14;99990.39;;;23.32;50.73
61697;BME280;47610;52.252;20.922;2023-05-24T06:28:17;99997.86;;;23.41;51.32
61697;BME280;47610;52.252;20.922;2023-05-24T06:33:21;99999.36;;;23.24;50.28
61697;BME280;47610;52.252;20.922;2023-05-24T06:38:25;100013.18;;;23.20;52.06
61697;BME280;47610;52.252;20.922;2023-05-24T06:43:31;100016.52;;;23.00;50.81
61697;BME280;47610;52.252;20.922;2023-05-24T06:48:34;100025.86;;;22.81;52.08
61697;BME280;47610;52.252;20.922;2023-05-24T06:53:38;100035.58;;;23.14;52.17
61697;BME280;47610;52.252;20.922;2023-05-24T06:58:40;100036.33;;;24.08;51.08
61697;BME280;47610;52.252;20.922;2023-05-24T07:03:43;100030.83;;;24.33;51.56
61697;BME280;47610;52.252;20.922;2023-05-24T07:08:49;100043.39;;;24.06;50.68
61697;BME280;47610;52.252;20.922;2023-05-24T07:13:53;100040.60;;;23.72;51.43
61697;BME280;47610;52.252;20.922;2023-05-24T07:18:56;100042.45;;;23.89;51.93
61697;BME280;47610;52.252;20.922;2023-05-24T07:24:00;100044.89;;;23.82;51.83
61697;BME280;47610;52.252;20.922;2023-05-24T07:29:05;100053.94;;;23.81;52.42
61697;BME280;47610;52.252;20.922;2023-05-24T07:34:09;100061.95;;;23.72;51.66
61697;BME280;47610;52.252;20.922;2023-05-24T07:39:12;100071.05;;;23.86;54.02
61697;BME280;47610;52.252;20.922;2023-05-24T07:44:15;100075.75;;;24.01;55.67
61697;BME280;47610;52.252;20.922;2023-05-24T07:49:18;100081.48;;;24.07;54.06
61697;BME280;47610;52.252;20.922;2023-05-24T07:54:22;100080.02;;;24.20;55.14
61697;BME280;47610;52.252;20.922;2023-05-24T07:59:28;100082.16;;;24.71;57.15
61697;BME280;47610;52.252;20.922;2023-05-24T08:04:31;100085.43;;;24.80;56.83
61697;BME280;47610;52.252;20.922;2023-05-24T08:09:35;100095.41;;;24.92;54.90
61697;BME280;47610;52.252;20.922;2023-05-24T08:14:38;100095.76;;;24.99;52.38
61697;BME280;47610;52.252;20.922;2023-05-24T08:19:43;100097.14;;;25.28;52.29
61697;BME280;47610;52.252;20.922;2023-05-24T08:24:46;100104.47;;;25.53;48.90
61697;BME280;47610;52.252;20.922;2023-05-24T08:29:49;100103.27;;;25.29;48.77
61697;BME280;47610;52.252;20.922;2023-05-24T08:34:53;100104.16;;;25.18;49.15
61697;BME280;47610;52.252;20.922;2023-05-24T08:39:56;100107.05;;;25.87;47.62
61697;BME280;47610;52.252;20.922;2023-05-24T08:45:07;100107.86;;;26.87;48.46
61697;BME280;47610;52.252;20.922;2023-05-24T08:50:12;100112.88;;;28.20;43.61
61697;BME280;47610;52.252;20.922;2023-05-24T08:55:17;100117.69;;;29.33;39.23
61697;BME280;47610;52.252;20.922;2023-05-24T09:00:23;100120.61;;;28.69;37.95
61697;BME280;47610;52.252;20.922;2023-05-24T09:05:29;100120.59;;;27.89;39.35
61697;BME280;47610;52.252;20.922;2023-05-24T09:10:34;100123.58;;;27.34;40.44
61697;BME280;47610;52.252;20.922;2023-05-24T09:15:39;100129.11;;;26.69;42.14
61697;BME280;47610;52.252;20.922;2023-05-24T09:20:42;100131.73;;;26.27;45.77
61697;BME280;47610;52.252;20.922;2023-05-24T09:25:48;100138.78;;;25.93;49.25
61697;BME280;47610;52.252;20.922;2023-05-24T09:31:03;100144.08;;;25.65;50.91
61697;BME280;47610;52.252;20.922;2023-05-24T09:36:09;100147.67;;;25.44;51.71
61697;BME280;47610;52.252;20.922;2023-05-24T09:41:14;100150.64;;;25.16;55.28
61697;BME280;47610;52.252;20.922;2023-05-24T09:46:19;100154.44;;;24.81;56.86
61697;BME280;47610;52.252;20.922;2023-05-24T09:51:23;100152.21;;;24.57;59.41
61697;BME280;47610;52.252;20.922;2023-05-24T09:56:27;100154.41;;;24.37;61.63
61697;BME280;47610;52.252;20.922;2023-05-24T10:01:33;100155.66;;;24.35;64.64
61697;BME280;47610;52.252;20.922;2023-05-24T10:06:37;100157.66;;;24.40;64.82
61697;BME280;47610;52.252;20.922;2023-05-24T10:11:42;100157.29;;;24.37;63.30
61697;BME280;47610;52.252;20.922;2023-05-24T10:16:47;100162.67;;;24.32;64.90
61697;BME280;47610;52.252;20.922;2023-05-24T10:21:53;100169.85;;;24.29;66.95
61697;BME280;47610;52.252;20.922;2023-05-24T10:27:00;100168.73;;;24.17;67.15
61697;BME280;47610;52.252;20.922;2023-05-24T10:32:06;100169.02;;;24.14;65.30
61697;BME280;47610;52.252;20.922;2023-05-24T10:37:12;100171.73;;;24.18;68.99
61697;BME280;47610;52.252;20.922;2023-05-24T10:42:16;100175.02;;;24.22;70.61
61697;BME280;47610;52.252;20.922;2023-05-24T10:47:22;100172.56;;;24.32;68.28
61697;BME280;47610;52.252;20.922;2023-05-24T10:52:36;100175.25;;;24.43;67.70
61697;BME280;47610;52.252;20.922;2023-05-24T10:57:40;100179.41;;;24.49;67.24
61697;BME280;47610;52.252;20.922;2023-05-24T11:02:43;100185.30;;;24.35;67.69
61697;BME280;47610;52.252;20.922;2023-05-24T11:07:47;100182.19;;;24.23;67.88
61697;BME280;47610;52.252;20.922;2023-05-24T11:12:58;100191.46;;;24.50;68.03
61697;BME280;47610;52.252;20.922;2023-05-24T11:18:20;100194.23;;;24.80;67.21
61697;BME280;47610;52.252;20.922;2023-05-24T11:23:26;100195.04;;;24.89;67.77
61697;BME280;47610;52.252;20.922;2023-05-24T11:28:31;100198.01;;;25.04;65.41
61697;BME280;47610;52.252;20.922;2023-05-24T11:33:39;100199.40;;;25.11;63.93
61697;BME280;47610;52.252;20.922;2023-05-24T11:38:43;100199.44;;;25.17;64.29
61697;BME280;47610;52.252;20.922;2023-05-24T11:43:46;100198.54;;;25.07;64.28
61697;BME280;47610;52.252;20.922;2023-05-24T11:48:57;100201.65;;;24.95;64.84
61697;BME280;47610;52.252;20.922;2023-05-24T11:54:01;100194.43;;;25.12;64.44
61697;BME280;47610;52.252;20.922;2023-05-24T11:59:15;100184.23;;;25.28;66.74
61697;BME280;47610;52.252;20.922;2023-05-24T12:04:20;100183.77;;;25.53;68.07
61697;BME280;47610;52.252;20.922;2023-05-24T12:09:25;100188.20;;;25.72;70.39
61697;BME280;47610;52.252;20.922;2023-05-24T12:14:31;100183.96;;;25.74;66.21
61697;BME280;47610;52.252;20.922;2023-05-24T12:19:35;100185.08;;;25.73;70.86
61697;BME280;47610;52.252;20.922;2023-05-24T12:24:39;100187.02;;;25.80;70.13
61697;BME280;47610;52.252;20.922;2023-05-24T12:29:43;100180.70;;;25.77;69.91
61697;BME280;47610;52.252;20.922;2023-05-24T12:34:47;100178.70;;;25.72;70.93
61697;BME280;47610;52.252;20.922;2023-05-24T12:39:53;100177.52;;;25.74;70.51
61697;BME280;47610;52.252;20.922;2023-05-24T12:44:56;100177.70;;;25.82;68.81
61697;BME280;47610;52.252;20.922;2023-05-24T12:50:01;100173.75;;;25.82;67.68
61697;BME280;47610;52.252;20.922;2023-05-24T12:55:07;100177.54;;;25.87;66.29
61697;BME280;47610;52.252;20.922;2023-05-24T13:00:13;100175.65;;;25.85;65.17
61697;BME280;47610;52.252;20.922;2023-05-24T13:05:17;100175.72;;;25.84;65.04
61697;BME280;47610;52.252;20.922;2023-05-24T13:10:20;100176.41;;;25.82;67.20
61697;BME280;47610;52.252;20.922;2023-05-24T13:15:27;100174.24;;;25.83;66.39
61697;BME280;47610;52.252;20.922;2023-05-24T13:20:34;100173.02;;;25.86;64.59
61697;BME280;47610;52.252;20.922;2023-05-24T13:25:37;100166.19;;;25.94;65.50
61697;BME280;47610;52.252;20.922;2023-05-24T13:30:41;100169.54;;;26.06;67.21
61697;BME280;47610;52.252;20.922;2023-05-24T13:35:46;100167.77;;;26.21;66.97
61697;BME280;47610;52.252;20.922;2023-05-24T13:40:50;100173.23;;;26.34;67.39
61697;BME280;47610;52.252;20.922;2023-05-24T13:45:54;100174.24;;;26.32;65.07
61697;BME280;47610;52.252;20.922;2023-05-24T13:50:58;100180.98;;;26.27;63.52
61697;BME280;47610;52.252;20.922;2023-05-24T13:56:06;100186.52;;;26.17;65.37
61697;BME280;47610;52.252;20.922;2023-05-24T14:01:11;100190.73;;;25.98;68.06
61697;BME280;47610;52.252;20.922;2023-05-24T14:06:14;100209.64;;;25.67;74.14
61697;BME280;47610;52.252;20.922;2023-05-24T14:11:18;100224.98;;;25.19;77.74
61697;BME280;47610;52.252;20.922;2023-05-24T14:16:24;100227.02;;;24.69;78.96
61697;BME280;47610;52.252;20.922;2023-05-24T14:21:27;100222.75;;;24.38;93.23
61697;BME280;47610;52.252;20.922;2023-05-24T14:26:31;100224.52;;;23.79;100.00
61697;BME280;47610;52.252;20.922;2023-05-24T14:31:36;100216.20;;;23.44;100.00
61697;BME280;47610;52.252;20.922;2023-05-24T14:36:40;100209.54;;;23.40;100.00
61697;BME280;47610;52.252;20.922;2023-05-24T14:41:44;100212.56;;;23.39;100.00
61697;BME280;47610;52.252;20.922;2023-05-24T14:46:49;100218.28;;;23.26;100.00
61697;BME280;47610;52.252;20.922;2023-05-24T14:51:53;100224.45;;;22.93;100.00
61697;BME280;47610;52.252;20.922;2023-05-24T14:56:56;100226.15;;;22.88;100.00
61697;BME280;47610;52.252;20.922;2023-05-24T15:02:01;100218.70;;;22.94;100.00
61697;BME280;47610;52.252;20.922;2023-05-24T15:07:06;100217.64;;;23.06;100.00
61697;BME280;47610;52.252;20.922;2023-05-24T15:12:10;100218.80;;;23.10;100.00
61697;BME280;47610;52.252;20.922;2023-05-24T15:17:13;100223.77;;;22.98;100.00
61697;BME280;47610;52.252;20.922;2023-05-24T15:22:17;100232.60;;;22.89;100.00
61697;BME280;47610;52.252;20.922;2023-05-24T15:27:20;100234.83;;;22.92;100.00
61697;BME280;47610;52.252;20.922;2023-05-24T15:32:26;100236.71;;;22.96;100.00
61697;BME280;47610;52.252;20.922;2023-05-24T15:37:30;100245.77;;;22.98;100.00
61697;BME280;47610;52.252;20.922;2023-05-24T15:42:34;100248.59;;;22.87;100.00
61697;BME280;47610;52.252;20.922;2023-05-24T15:47:39;100267.81;;;22.83;100.00
61697;BME280;47610;52.252;20.922;2023-05-24T15:52:43;100271.45;;;22.81;100.00
61697;BME280;47610;52.252;20.922;2023-05-24T15:57:46;100267.55;;;22.78;100.00
61697;BME280;47610;52.252;20.922;2023-05-24T16:02:50;100271.48;;;22.74;100.00
61697;BME280;47610;52.252;20.922;2023-05-24T16:07:53;100283.65;;;22.64;100.00
61697;BME280;47610;52.252;20.922;2023-05-24T16:12:56;100291.57;;;22.48;100.00
61697;BME280;47610;52.252;20.922;2023-05-24T16:18:02;100300.23;;;22.48;100.00
61697;BME280;47610;52.252;20.922;2023-05-24T16:23:09;100308.36;;;22.41;100.00
61697;BME280;47610;52.252;20.922;2023-05-24T16:28:13;100321.01;;;22.29;100.00
61697;BME280;47610;52.252;20.922;2023-05-24T16:33:16;100324.70;;;22.16;100.00
61697;BME280;47610;52.252;20.922;2023-05-24T16:38:20;100329.77;;;22.02;100.00
61697;BME280;47610;52.252;20.922;2023-05-24T16:43:23;100327.48;;;21.92;100.00
61697;BME280;47610;52.252;20.922;2023-05-24T16:48:28;100331.48;;;21.76;100.00
61697;BME280;47610;52.252;20.922;2023-05-24T16:53:31;100333.79;;;21.63;100.00
61697;BME280;47610;52.252;20.922;2023-05-24T16:58:34;100335.59;;;21.49;100.00
61697;BME280;47610;52.252;20.922;2023-05-24T17:03:41;100337.60;;;21.36;100.00
61697;BME280;47610;52.252;20.922;2023-05-24T17:08:44;100339.88;;;21.25;100.00
61697;BME280;47610;52.252;20.922;2023-05-24T17:13:48;100337.30;;;21.17;100.00
61697;BME280;47610;52.252;20.922;2023-05-24T17:18:51;100335.98;;;21.09;100.00
61697;BME280;47610;52.252;20.922;2023-05-24T17:23:55;100339.05;;;20.96;100.00
61697;BME280;47610;52.252;20.922;2023-05-24T17:28:59;100346.60;;;20.88;100.00
61697;BME280;47610;52.252;20.922;2023-05-24T17:34:03;100350.12;;;20.72;100.00
61697;BME280;47610;52.252;20.922;2023-05-24T17:39:06;100351.74;;;20.57;100.00
61697;BME280;47610;52.252;20.922;2023-05-24T17:44:10;100360.34;;;20.46;100.00
61697;BME280;47610;52.252;20.922;2023-05-24T17:49:14;100361.05;;;20.37;100.00
61697;BME280;47610;52.252;20.922;2023-05-24T17:54:19;100363.65;;;20.26;100.00
61697;BME280;47610;52.252;20.922;2023-05-24T17:59:22;100370.08;;;20.10;100.00
61697;BME280;47610;52.252;20.922;2023-05-24T18:04:25;100374.59;;;19.94;100.00
61697;BME280;47610;52.252;20.922;2023-05-24T18:09:30;100384.72;;;19.78;100.00
61697;BME280;47610;52.252;20.922;2023-05-24T18:14:33;100397.83;;;19.62;100.00
61697;BME280;47610;52.252;20.922;2023-05-24T18:19:37;100403.80;;;19.46;100.00
61697;BME280;47610;52.252;20.922;2023-05-24T18:24:41;100412.77;;;19.31;100.00
61697;BME280;47610;52.252;20.922;2023-05-24T18:29:46;100423.31;;;19.17;100.00
61697;BME280;47610;52.252;20.922;2023-05-24T18:34:49;100431.85;;;19.08;100.00
61697;BME280;47610;52.252;20.922;2023-05-24T18:39:53;100438.73;;;19.03;100.00
61697;BME280;47610;52.252;20.922;2023-05-24T18:44:58;100445.77;;;18.97;100.00
61697;BME280;47610;52.252;20.922;2023-05-24T18:50:02;100448.48;;;18.91;100.00
61697;BME280;47610;52.252;20.922;2023-05-24T18:55:08;100449.45;;;18.76;100.00
61697;BME280;47610;52.252;20.922;2023-05-24T19:00:14;100457.00;;;18.63;100.00
61697;BME280;47610;52.252;20.922;2023-05-24T19:05:20;100459.52;;;18.54;100.00
61697;BME280;47610;52.252;20.922;2023-05-24T19:10:24;100464.95;;;18.40;100.00
61697;BME280;47610;52.252;20.922;2023-05-24T19:15:27;100465.48;;;18.23;100.00
61697;BME280;47610;52.252;20.922;2023-05-24T19:20:32;100467.77;;;18.20;100.00
61697;BME280;47610;52.252;20.922;2023-05-24T19:25:36;100466.25;;;18.11;100.00
61697;BME280;47610;52.252;20.922;2023-05-24T19:30:38;100471.52;;;18.04;100.00
61697;BME280;47610;52.252;20.922;2023-05-24T19:35:42;100482.17;;;18.00;100.00
61697;BME280;47610;52.252;20.922;2023-05-24T19:40:48;100482.96;;;17.88;100.00
61697;BME280;47610;52.252;20.922;2023-05-24T19:45:54;100484.31;;;17.73;100.00
61697;BME280;47610;52.252;20.922;2023-05-24T19:50:57;100492.27;;;17.58;100.00
61697;BME280;47610;52.252;20.922;2023-05-24T19:56:02;100493.23;;;17.49;100.00
61697;BME280;47610;52.252;20.922;2023-05-24T20:01:06;100499.67;;;17.46;100.00
61697;BME280;47610;52.252;20.922;2023-05-24T20:06:10;100497.23;;;17.44;100.00
61697;BME280;47610;52.252;20.922;2023-05-24T20:11:17;100500.69;;;17.39;100.00
61697;BME280;47610;52.252;20.922;2023-05-24T20:16:21;100507.51;;;17.21;100.00
61697;BME280;47610;52.252;20.922;2023-05-24T20:21:25;100503.10;;;17.12;100.00
61697;BME280;47610;52.252;20.922;2023-05-24T20:26:28;100505.66;;;17.01;100.00
61697;BME280;47610;52.252;20.922;2023-05-24T20:31:32;100504.29;;;16.89;100.00
61697;BME280;47610;52.252;20.922;2023-05-24T20:36:36;100505.54;;;16.81;100.00
61697;BME280;47610;52.252;20.922;2023-05-24T20:46:56;100509.92;;;16.68;100.00
61697;BME280;47610;52.252;20.922;2023-05-24T20:51:59;100515.92;;;16.68;100.00
61697;BME280;47610;52.252;20.922;2023-05-24T20:57:06;100515.66;;;16.63;100.00
61697;BME280;47610;52.252;20.922;2023-05-24T21:02:11;100512.27;;;16.58;100.00
61697;BME280;47610;52.252;20.922;2023-05-24T21:07:15;100511.64;;;16.56;100.00
61697;BME280;47610;52.252;20.922;2023-05-24T21:12:18;100520.52;;;16.55;100.00
61697;BME280;47610;52.252;20.922;2023-05-24T21:17:22;100524.66;;;16.58;100.00
61697;BME280;47610;52.252;20.922;2023-05-24T21:22:25;100528.56;;;16.60;100.00
61697;BME280;47610;52.252;20.922;2023-05-24T21:27:29;100536.80;;;16.51;100.00
61697;BME280;47610;52.252;20.922;2023-05-24T21:32:32;100540.86;;;16.49;100.00
61697;BME280;47610;52.252;20.922;2023-05-24T21:37:36;100541.41;;;16.38;100.00
61697;BME280;47610;52.252;20.922;2023-05-24T21:42:39;100543.52;;;16.31;100.00
61697;BME280;47610;52.252;20.922;2023-05-24T21:47:42;100543.40;;;16.29;100.00
61697;BME280;47610;52.252;20.922;2023-05-24T21:52:45;100550.06;;;16.22;100.00
61697;BME280;47610;52.252;20.922;2023-05-24T21:57:50;100554.56;;;16.16;100.00
61697;BME280;47610;52.252;20.922;2023-05-24T22:02:55;100559.59;;;16.09;100.00
61697;BME280;47610;52.252;20.922;2023-05-24T22:07:58;100559.41;;;16.04;100.00
61697;BME280;47610;52.252;20.922;2023-05-24T22:13:02;100558.61;;;16.05;100.00
61697;BME280;47610;52.252;20.922;2023-05-24T22:18:06;100562.21;;;16.17;100.00
61697;BME280;47610;52.252;20.922;2023-05-24T22:23:11;100563.91;;;16.29;100.00
61697;BME280;47610;52.252;20.922;2023-05-24T22:28:15;100565.71;;;16.38;100.00
61697;BME280;47610;52.252;20.922;2023-05-24T22:33:18;100560.45;;;16.43;100.00
61697;BME280;47610;52.252;20.922;2023-05-24T22:38:21;100563.65;;;16.46;100.00
61697;BME280;47610;52.252;20.922;2023-05-24T22:43:25;100570.16;;;16.46;100.00
61697;BME280;47610;52.252;20.922;2023-05-24T22:48:28;100568.80;;;16.45;100.00
61697;BME280;47610;52.252;20.922;2023-05-24T22:53:31;100569.16;;;16.41;100.00
61697;BME280;47610;52.252;20.922;2023-05-24T22:58:35;100567.90;;;16.37;100.00
61697;BME280;47610;52.252;20.922;2023-05-24T23:03:38;100565.64;;;16.32;100.00
61697;BME280;47610;52.252;20.922;2023-05-24T23:08:43;100566.94;;;16.27;100.00
61697;BME280;47610;52.252;20.922;2023-05-24T23:13:46;100566.00;;;16.22;100.00
61697;BME280;47610;52.252;20.922;2023-05-24T23:18:50;100565.73;;;16.16;100.00
61697;BME280;47610;52.252;20.922;2023-05-24T23:23:54;100572.20;;;16.11;100.00
61697;BME280;47610;52.252;20.922;2023-05-24T23:28:58;100577.25;;;16.06;100.00
61697;BME280;47610;52.252;20.922;2023-05-24T23:34:01;100579.55;;;16.00;100.00
61697;BME280;47610;52.252;20.922;2023-05-24T23:39:05;100583.71;;;15.91;100.00
61697;BME280;47610;52.252;20.922;2023-05-24T23:44:09;100590.16;;;15.82;100.00
61697;BME280;47610;52.252;20.922;2023-05-24T23:49:13;100602.64;;;15.76;100.00
61697;BME280;47610;52.252;20.922;2023-05-24T23:54:16;100607.13;;;15.70;100.00
61697;BME280;47610;52.252;20.922;2023-05-24T23:59:19;100605.74;;;15.64;100.00
